Time;durP1;ratioP1;P1;durP2;ratioP2;P2;SDS_P1;SDS_P2;PMS_P1;PMS_P2;Temp;Humidity;BMP_temperature;BMP_pressure;BME280_temperature;BME280_humidity;BME280_pressure;Samples;Min_cycle;Max_cycle;Signal;HPM_P1;HPM_P2
2021/06/16 00:01:47;;;;;;;9.60;7.78;;;24.90;91.00;;;;;;6095996;23;20018;-76
2021/06/16 00:04:13;;;;;;;13.57;8.50;;;25.00;91.00;;;;;;6122121;23;20129;-76
2021/06/16 00:06:39;;;;;;;9.35;7.97;;;24.90;90.80;;;;;;6122233;23;20056;-77
2021/06/16 00:09:08;;;;;;;10.82;8.57;;;24.90;90.40;;;;;;6097463;23;20022;-76
2021/06/16 00:11:37;;;;;;;8.45;7.57;;;24.90;87.70;;;;;;6122551;23;20062;-76
2021/06/16 00:14:04;;;;;;;9.75;7.47;;;24.90;87.90;;;;;;6096437;23;20025;-76
2021/06/16 00:16:31;;;;;;;8.70;7.88;;;24.90;87.90;;;;;;6096475;23;20053;-77
2021/06/16 00:18:57;;;;;;;9.68;8.38;;;24.90;88.20;;;;;;6122577;23;20029;-77
2021/06/16 00:21:23;;;;;;;8.05;7.25;;;24.90;88.20;;;;;;6122856;23;20309;-76
2021/06/16 00:23:49;;;;;;;9.68;7.15;;;24.90;87.80;;;;;;6096496;23;20025;-75
2021/06/16 00:26:16;;;;;;;8.52;7.45;;;24.90;88.30;;;;;;6072448;23;20148;-77
2021/06/16 00:28:42;;;;;;;8.73;7.82;;;24.80;88.30;;;;;;6072497;23;20014;-77
2021/06/16 00:31:09;;;;;;;9.65;7.78;;;24.90;88.00;;;;;;6122337;23;20105;-77
2021/06/16 00:33:35;;;;;;;9.15;7.43;;;24.90;88.00;;;;;;6095954;23;20080;-77
2021/06/16 00:36:01;;;;;;;8.27;7.03;;;24.90;87.80;;;;;;6097454;23;20006;-76
2021/06/16 00:38:28;;;;;;;7.85;7.05;;;24.80;87.80;;;;;;6096748;23;20471;-76
2021/06/16 00:40:55;;;;;;;9.68;7.38;;;24.80;88.00;;;;;;6096386;23;20064;-76
2021/06/16 00:43:21;;;;;;;8.45;7.57;;;24.80;88.00;;;;;;6072529;23;20482;-76
2021/06/16 00:45:47;;;;;;;8.32;7.40;;;24.80;88.10;;;;;;6096337;23;20071;-76
2021/06/16 00:48:14;;;;;;;7.60;6.88;;;24.70;88.00;;;;;;6096658;23;20009;-76
2021/06/16 00:50:41;;;;;;;9.20;7.35;;;24.70;87.90;;;;;;6121851;23;20344;-77
2021/06/16 00:53:08;;;;;;;10.57;6.72;;;24.70;87.80;;;;;;6122143;23;20013;-77
2021/06/16 00:55:39;;;;;;;8.02;6.78;;;24.70;88.00;;;;;;6096612;23;20018;-77
2021/06/16 00:58:13;;;;;;;7.85;6.68;;;24.70;87.40;;;;;;6073280;23;20077;-77
2021/06/16 01:00:57;;;;;;;8.68;6.80;;;24.70;87.00;;;;;;6072299;23;20014;-77
2021/06/16 01:03:48;;;;;;;9.85;6.18;;;24.70;87.40;;;;;;6122380;23;20010;-77
2021/06/16 01:06:43;;;;;;;9.20;6.43;;;24.70;87.70;;;;;;6103616;23;20041;-77
2021/06/16 01:09:31;;;;;;;9.32;6.35;;;24.70;87.50;;;;;;6122538;23;20016;-77
2021/06/16 01:12:23;;;;;;;7.05;6.20;;;24.70;87.50;;;;;;6096408;23;20104;-75
2021/06/16 01:15:06;;;;;;;7.78;6.25;;;24.70;87.60;;;;;;6072492;23;20360;-76
2021/06/16 01:17:54;;;;;;;9.70;6.57;;;24.70;87.80;;;;;;6096035;23;20108;-75
2021/06/16 01:20:32;;;;;;;10.18;6.43;;;24.70;89.00;;;;;;6095741;23;20184;-75
2021/06/16 01:22:58;;;;;;;6.80;6.20;;;24.70;88.60;;;;;;6096726;23;20020;-76
2021/06/16 01:25:48;;;;;;;7.78;6.43;;;24.70;88.40;;;;;;6096145;23;20340;-76
2021/06/16 01:28:16;;;;;;;8.73;6.32;;;24.70;88.40;;;;;;6096551;23;20017;-75
2021/06/16 01:30:43;;;;;;;8.05;6.40;;;24.80;88.70;;;;;;6096133;23;20010;-77
2021/06/16 01:33:12;;;;;;;7.95;6.05;;;24.80;88.70;;;;;;6071804;23;20363;-76
2021/06/16 01:35:41;;;;;;;6.32;5.72;;;24.90;89.10;;;;;;6095910;23;20021;-77
2021/06/16 01:38:09;;;;;;;6.93;6.20;;;24.90;89.70;;;;;;6072028;23;20018;-75
2021/06/16 01:40:37;;;;;;;6.93;6.15;;;25.00;89.90;;;;;;6121697;23;20014;-78
2021/06/16 01:43:04;;;;;;;8.20;6.32;;;25.00;89.60;;;;;;6096185;23;20470;-76
2021/06/16 01:45:34;;;;;;;6.75;6.07;;;25.00;88.40;;;;;;6096241;23;20152;-78
2021/06/16 01:48:01;;;;;;;7.65;6.40;;;25.00;88.30;;;;;;6096626;23;20049;-76
2021/06/16 01:50:29;;;;;;;6.93;6.22;;;25.00;88.70;;;;;;6096044;23;20487;-77
2021/06/16 01:52:56;;;;;;;6.88;6.28;;;25.00;88.90;;;;;;6072235;23;20467;-77
2021/06/16 01:55:23;;;;;;;8.60;6.22;;;25.00;88.80;;;;;;6096086;23;20411;-76
2021/06/16 01:57:53;;;;;;;7.85;6.45;;;25.00;89.40;;;;;;6096045;23;20075;-76
2021/06/16 02:00:20;;;;;;;8.80;6.03;;;25.00;89.60;;;;;;6121928;23;20018;-76
2021/06/16 02:02:47;;;;;;;7.28;6.57;;;25.00;90.00;;;;;;6071753;23;20010;-76
2021/06/16 02:05:17;;;;;;;6.65;6.05;;;25.00;90.10;;;;;;6121503;23;20006;-77
2021/06/16 02:08:06;;;;;;;8.45;6.38;;;25.00;90.20;;;;;;6096377;23;20057;-76
2021/06/16 02:10:36;;;;;;;8.00;6.80;;;25.00;90.20;;;;;;6096032;23;20441;-77
2021/06/16 02:13:06;;;;;;;6.90;6.40;;;25.00;89.90;;;;;;6072093;23;20006;-76
2021/06/16 02:16:09;;;;;;;9.07;6.88;;;25.10;89.80;;;;;;6095957;23;20014;-77
2021/06/16 02:18:45;;;;;;;7.88;7.18;;;25.10;88.80;;;;;;6128250;23;20021;-75
2021/06/16 02:21:11;;;;;;;8.02;6.72;;;25.20;87.80;;;;;;6099553;23;20087;-76
2021/06/16 02:23:37;;;;;;;7.20;6.47;;;25.30;87.50;;;;;;6095991;23;20006;-76
2021/06/16 02:26:04;;;;;;;12.05;6.75;;;25.40;87.70;;;;;;6095534;23;20018;-76
2021/06/16 02:28:30;;;;;;;8.65;6.97;;;25.50;87.40;;;;;;6072077;23;20014;-76
2021/06/16 02:30:56;;;;;;;7.53;5.97;;;25.60;87.10;;;;;;6071741;23;20013;-76
2021/06/16 02:33:22;;;;;;;6.88;6.10;;;25.70;84.80;;;;;;6121451;23;20025;-76
2021/06/16 02:35:48;;;;;;;6.82;6.22;;;25.70;84.00;;;;;;6095665;23;20016;-76
2021/06/16 02:38:19;;;;;;;6.88;5.72;;;25.90;83.80;;;;;;6095867;23;20105;-76
2021/06/16 02:40:46;;;;;;;7.10;6.50;;;25.90;83.60;;;;;;6095613;23;20026;-77
2021/06/16 02:43:14;;;;;;;6.70;6.13;;;26.00;83.40;;;;;;6072044;23;20010;-78
2021/06/16 02:45:42;;;;;;;7.63;5.75;;;26.10;83.50;;;;;;6072101;23;20014;-79
2021/06/16 02:48:09;;;;;;;6.53;5.93;;;26.10;83.50;;;;;;6095570;23;20021;-76
2021/06/16 02:50:37;;;;;;;6.78;5.78;;;26.20;83.20;;;;;;6095585;23;20010;-76
2021/06/16 02:53:24;;;;;;;6.05;5.55;;;26.30;82.40;;;;;;6072022;23;20092;-76
2021/06/16 02:55:54;;;;;;;6.07;5.57;;;26.30;82.50;;;;;;6094978;23;20046;-79
2021/06/16 02:58:22;;;;;;;6.53;5.72;;;26.40;82.70;;;;;;6095345;23;20045;-80
2021/06/16 03:00:58;;;;;;;8.32;5.05;;;26.50;83.00;;;;;;6071629;23;20093;-80
2021/06/16 03:03:25;;;;;;;5.68;5.18;;;26.60;83.00;;;;;;6122205;23;20006;-79
2021/06/16 03:05:53;;;;;;;5.70;5.07;;;26.60;82.70;;;;;;6095324;23;20018;-77
2021/06/16 03:08:21;;;;;;;10.27;5.05;;;26.70;82.60;;;;;;6072559;23;20013;-77
2021/06/16 03:10:48;;;;;;;6.70;5.30;;;26.70;81.90;;;;;;6095691;23;20021;-79
2021/06/16 03:13:15;;;;;;;6.53;4.90;;;26.70;81.30;;;;;;6095613;23;20005;-79
2021/06/16 03:15:44;;;;;;;6.95;5.20;;;26.70;81.10;;;;;;6121321;23;20010;-77
2021/06/16 03:18:11;;;;;;;6.28;4.90;;;26.70;81.30;;;;;;6095525;23;20018;-79
2021/06/16 03:20:39;;;;;;;6.90;4.63;;;26.80;81.90;;;;;;6095541;23;20081;-79
2021/06/16 03:23:07;;;;;;;7.07;4.47;;;26.80;82.10;;;;;;6071497;23;20387;-78
2021/06/16 03:25:33;;;;;;;6.93;4.68;;;26.90;81.80;;;;;;6120878;23;20356;-77
2021/06/16 03:28:00;;;;;;;4.97;4.43;;;26.90;81.90;;;;;;6120802;23;20014;-77
2021/06/16 03:30:26;;;;;;;4.80;4.40;;;27.00;82.30;;;;;;6095287;23;20378;-78
2021/06/16 03:32:54;;;;;;;4.63;3.85;;;27.10;82.50;;;;;;6120806;23;20029;-77
2021/06/16 03:35:20;;;;;;;4.45;4.00;;;27.10;82.80;;;;;;6095149;23;20007;-77
2021/06/16 03:37:48;;;;;;;4.32;3.97;;;27.20;83.20;;;;;;6095913;23;20075;-77
2021/06/16 03:40:15;;;;;;;4.65;4.18;;;27.30;83.20;;;;;;6096606;23;20018;-77
2021/06/16 03:42:43;;;;;;;5.40;4.15;;;27.30;82.90;;;;;;6122084;23;20014;-77
2021/06/16 03:45:10;;;;;;;6.57;4.45;;;27.50;82.80;;;;;;6096051;23;20021;-78
2021/06/16 03:47:43;;;;;;;5.57;4.50;;;27.50;82.30;;;;;;6072628;23;20025;-79
2021/06/16 03:50:14;;;;;;;5.68;4.05;;;27.60;82.80;;;;;;6096185;23;20467;-78
2021/06/16 03:52:42;;;;;;;4.05;3.75;;;27.70;82.30;;;;;;6121800;23;20474;-77
2021/06/16 03:55:09;;;;;;;4.60;4.05;;;27.70;82.60;;;;;;6096163;23;20117;-85
2021/06/16 03:57:37;;;;;;;6.47;3.80;;;27.80;82.60;;;;;;6072124;23;20515;-83
2021/06/16 04:00:05;;;;;;;5.97;3.72;;;27.90;82.50;;;;;;6095964;23;20014;-80
2021/06/16 04:02:34;;;;;;;4.50;3.90;;;27.90;82.30;;;;;;6095920;23;20022;-83
2021/06/16 04:05:06;;;;;;;6.32;3.60;;;28.00;82.50;;;;;;6072154;23;20006;-80
2021/06/16 04:07:32;;;;;;;6.40;3.65;;;28.10;80.40;;;;;;6072707;23;20010;-80
2021/06/16 04:09:59;;;;;;;3.95;3.60;;;28.10;78.60;;;;;;6121549;23;20467;-75
2021/06/16 04:12:26;;;;;;;3.75;3.45;;;28.20;78.00;;;;;;6095774;23;20037;-75
2021/06/16 04:14:53;;;;;;;3.55;3.20;;;28.30;77.90;;;;;;6096335;23;20041;-76
2021/06/16 04:17:20;;;;;;;4.35;3.35;;;28.40;77.90;;;;;;6072115;23;20011;-75
2021/06/16 04:19:48;;;;;;;4.53;3.63;;;28.40;77.80;;;;;;6096097;23;20014;-78
2021/06/16 04:22:15;;;;;;;3.72;3.28;;;28.50;77.80;;;;;;6122294;23;20101;-77
2021/06/16 04:24:41;;;;;;;3.47;3.17;;;28.60;77.70;;;;;;6121874;23;20014;-76
2021/06/16 04:27:08;;;;;;;5.05;3.58;;;28.70;77.70;;;;;;6122390;23;20014;-75
2021/06/16 04:29:35;;;;;;;3.22;2.80;;;28.70;77.80;;;;;;6122171;23;20475;-77
2021/06/16 04:32:01;;;;;;;3.75;2.83;;;28.80;77.70;;;;;;6122029;23;20029;-77
2021/06/16 04:34:28;;;;;;;4.90;3.17;;;28.90;77.30;;;;;;6096528;23;20014;-78
2021/06/16 04:36:54;;;;;;;8.02;3.70;;;28.90;77.10;;;;;;6096444;23;20045;-77
2021/06/16 04:39:19;;;;;;;3.40;2.70;;;29.00;77.10;;;;;;6121574;23;20018;-76
2021/06/16 04:41:45;;;;;;;3.05;2.85;;;29.10;77.30;;;;;;6122289;23;20010;-76
2021/06/16 04:44:11;;;;;;;3.67;2.95;;;29.20;77.20;;;;;;6096178;23;20349;-77
2021/06/16 04:46:40;;;;;;;3.17;2.97;;;29.30;77.40;;;;;;6096207;23;20014;-76
2021/06/16 04:49:06;;;;;;;3.08;2.88;;;29.30;77.50;;;;;;6096904;23;20009;-78
2021/06/16 04:51:32;;;;;;;3.53;2.70;;;29.40;77.40;;;;;;6096207;23;20018;-78
2021/06/16 04:53:58;;;;;;;2.75;2.55;;;29.50;77.30;;;;;;6121789;23;20018;-78
2021/06/16 04:56:24;;;;;;;3.08;2.42;;;29.50;77.20;;;;;;6096454;23;20418;-78
2021/06/16 04:58:50;;;;;;;2.80;2.60;;;29.60;76.90;;;;;;6096317;23;20041;-78
2021/06/16 05:01:16;;;;;;;3.45;2.85;;;29.70;76.60;;;;;;6122122;23;20013;-78
2021/06/16 05:03:42;;;;;;;2.22;2.13;;;29.80;76.60;;;;;;6096133;23;20006;-78
2021/06/16 05:06:08;;;;;;;2.90;2.50;;;29.80;76.30;;;;;;6072186;23;20036;-78
2021/06/16 05:08:34;;;;;;;5.13;2.83;;;29.90;76.10;;;;;;6072380;23;20101;-77
2021/06/16 05:11:00;;;;;;;3.88;2.50;;;30.00;76.30;;;;;;6122058;23;20105;-76
2021/06/16 05:13:27;;;;;;;3.05;2.50;;;30.10;76.40;;;;;;6121727;23;20329;-76
2021/06/16 05:15:54;;;;;;;6.45;2.30;;;30.10;76.60;;;;;;6096349;23;20057;-76
2021/06/16 05:18:21;;;;;;;4.10;2.60;;;30.20;76.60;;;;;;6095981;23;20030;-76
2021/06/16 05:20:48;;;;;;;5.50;2.60;;;30.20;76.20;;;;;;6095905;23;20013;-76
2021/06/16 05:23:14;;;;;;;2.28;2.00;;;30.30;75.40;;;;;;6096167;23;20006;-75
2021/06/16 05:25:41;;;;;;;5.50;2.53;;;30.40;75.10;;;;;;6096507;23;20018;-76
2021/06/16 05:28:11;;;;;;;2.30;2.10;;;30.50;74.60;;;;;;6096713;23;20013;-77
2021/06/16 05:30:37;;;;;;;4.07;2.10;;;30.60;74.00;;;;;;6071954;23;20017;-77
2021/06/16 05:33:04;;;;;;;3.72;2.05;;;30.70;73.00;;;;;;6121612;23;20026;-78
2021/06/16 05:35:30;;;;;;;3.05;1.92;;;30.70;71.00;;;;;;6096565;23;20010;-79
2021/06/16 05:37:57;;;;;;;2.70;2.10;;;30.80;72.70;;;;;;6096361;23;20101;-78
2021/06/16 05:40:22;;;;;;;2.47;2.03;;;30.90;73.20;;;;;;6121652;23;20021;-79
2021/06/16 05:42:49;;;;;;;4.93;2.00;;;30.90;73.80;;;;;;6122025;23;20010;-78
2021/06/16 05:45:15;;;;;;;3.28;1.80;;;31.00;73.80;;;;;;6095987;23;20014;-80
2021/06/16 05:47:41;;;;;;;5.95;2.28;;;31.00;73.70;;;;;;6096213;23;20014;-78
2021/06/16 05:50:08;;;;;;;2.55;1.88;;;31.10;73.80;;;;;;6122049;23;20071;-80
2021/06/16 05:52:35;;;;;;;15.80;1.92;;;31.20;73.90;;;;;;6121698;23;20010;-78
2021/06/16 05:55:01;;;;;;;5.47;2.47;;;31.20;73.50;;;;;;6071856;23;20067;-78
2021/06/16 05:57:27;;;;;;;1.95;1.75;;;31.30;73.50;;;;;;6096018;23;20025;-77
2021/06/16 05:59:52;;;;;;;4.90;2.35;;;31.30;73.30;;;;;;6095512;23;20006;-75
2021/06/16 06:02:18;;;;;;;6.43;2.25;;;31.40;73.00;;;;;;6121574;23;20474;-73
2021/06/16 06:04:44;;;;;;;3.92;1.88;;;31.40;68.80;;;;;;6121423;23;20373;-74
2021/06/16 06:07:10;;;;;;;6.45;2.10;;;31.20;66.20;;;;;;6095672;23;20010;-73
2021/06/16 06:09:36;;;;;;;12.65;1.92;;;31.00;67.90;;;;;;6072229;23;20049;-74
2021/06/16 06:12:02;;;;;;;5.78;2.03;;;30.80;67.30;;;;;;6121545;23;20018;-74
2021/06/16 06:14:28;;;;;;;3.35;2.13;;;30.80;68.90;;;;;;6071979;23;20021;-72
2021/06/16 06:16:54;;;;;;;4.15;2.20;;;30.70;67.30;;;;;;6121771;23;20010;-75
2021/06/16 06:19:20;;;;;;;8.95;2.10;;;30.70;69.50;;;;;;6121575;23;20410;-76
2021/06/16 06:21:46;;;;;;;8.85;2.00;;;30.60;69.20;;;;;;6121715;23;20020;-75
2021/06/16 06:24:12;;;;;;;4.60;1.55;;;30.60;67.60;;;;;;6121821;23;20090;-74
2021/06/16 06:26:38;;;;;;;2.15;1.80;;;30.60;67.80;;;;;;6121312;23;20014;-76
2021/06/16 06:29:04;;;;;;;2.25;1.90;;;30.50;66.30;;;;;;6095699;23;20092;-78
2021/06/16 06:31:31;;;;;;;3.95;2.08;;;30.40;65.20;;;;;;6121401;23;20344;-78
2021/06/16 06:33:57;;;;;;;1.73;1.63;;;30.30;65.30;;;;;;6121549;23;20046;-72
2021/06/16 06:36:24;;;;;;;5.13;2.33;;;30.30;64.80;;;;;;6095719;23;20101;-73
2021/06/16 06:38:51;;;;;;;3.95;2.13;;;30.20;66.70;;;;;;6121759;23;20028;-74
2021/06/16 06:41:17;;;;;;;1.98;1.73;;;30.30;68.80;;;;;;6095499;23;20010;-73
2021/06/16 06:43:43;;;;;;;3.20;2.50;;;30.30;68.20;;;;;;6121133;23;20013;-73
2021/06/16 06:46:10;;;;;;;3.35;3.10;;;30.30;68.40;;;;;;6071594;23;20006;-74
2021/06/16 06:48:36;;;;;;;5.30;3.40;;;30.30;70.40;;;;;;6096368;23;20018;-75
2021/06/16 06:51:02;;;;;;;5.55;2.83;;;30.30;71.30;;;;;;6071778;23;20401;-72
2021/06/16 06:53:29;;;;;;;4.70;2.15;;;30.30;69.70;;;;;;6121827;23;20045;-73
2021/06/16 06:55:59;;;;;;;3.88;1.98;;;30.10;68.50;;;;;;6095690;23;20033;-73
2021/06/16 06:58:26;;;;;;;3.00;1.83;;;30.10;68.20;;;;;;6071097;23;20060;-74
2021/06/16 07:00:53;;;;;;;3.78;2.03;;;30.10;68.20;;;;;;6120966;23;20064;-73
2021/06/16 07:03:19;;;;;;;6.00;1.85;;;30.10;69.00;;;;;;6121375;23;20017;-73
2021/06/16 07:05:45;;;;;;;2.85;2.22;;;30.10;67.30;;;;;;6095437;23;20014;-75
2021/06/16 07:08:11;;;;;;;2.78;2.38;;;30.10;68.80;;;;;;6095458;23;20013;-75
2021/06/16 07:10:37;;;;;;;1.92;1.42;;;30.20;70.30;;;;;;6071433;23;20010;-74
2021/06/16 07:13:04;;;;;;;3.50;1.63;;;30.00;68.90;;;;;;6072907;23;20016;-73
2021/06/16 07:15:31;;;;;;;3.80;1.77;;;30.10;67.70;;;;;;6096869;23;20093;-73
2021/06/16 07:17:57;;;;;;;4.80;2.00;;;30.10;68.10;;;;;;6097159;23;20021;-75
2021/06/16 07:20:23;;;;;;;4.20;1.70;;;30.10;69.10;;;;;;6123038;23;20018;-74
2021/06/16 07:22:49;;;;;;;1.33;1.23;;;30.00;68.50;;;;;;6095994;23;20381;-75
2021/06/16 07:25:16;;;;;;;2.05;1.33;;;29.90;68.30;;;;;;6096207;23;20487;-74
2021/06/16 07:27:43;;;;;;;1.80;1.45;;;29.80;67.60;;;;;;6096595;23;20045;-74
2021/06/16 07:30:10;;;;;;;3.63;1.35;;;29.60;68.40;;;;;;6073127;23;20101;-74
2021/06/16 07:32:36;;;;;;;1.50;1.38;;;29.50;68.80;;;;;;6091463;23;20101;-74
2021/06/16 07:35:03;;;;;;;4.57;1.60;;;29.40;67.60;;;;;;6091686;23;20016;-74
2021/06/16 07:37:30;;;;;;;4.90;1.58;;;29.30;68.10;;;;;;6091751;23;20014;-75
2021/06/16 07:39:56;;;;;;;5.10;1.65;;;29.30;64.70;;;;;;6092615;23;20019;-74
2021/06/16 07:42:22;;;;;;;3.33;1.50;;;29.30;64.40;;;;;;6092242;23;20078;-75
2021/06/16 07:44:48;;;;;;;1.60;1.50;;;29.30;64.60;;;;;;6068035;23;20018;-75
2021/06/16 07:47:14;;;;;;;4.63;1.80;;;29.40;64.90;;;;;;6093133;23;20013;-76
2021/06/16 07:49:40;;;;;;;6.90;1.70;;;29.40;64.90;;;;;;6093121;23;20411;-77
2021/06/16 07:52:07;;;;;;;5.18;1.70;;;29.40;65.80;;;;;;6091467;23;20018;-76
2021/06/16 07:54:33;;;;;;;2.00;1.60;;;29.30;64.00;;;;;;6091620;23;20039;-75
2021/06/16 07:56:59;;;;;;;4.05;1.55;;;29.20;63.80;;;;;;6093300;23;20014;-75
2021/06/16 07:59:25;;;;;;;2.17;1.67;;;29.30;63.80;;;;;;6091620;23;20022;-76
2021/06/16 08:01:51;;;;;;;3.67;1.60;;;29.30;63.00;;;;;;6067490;23;20014;-75
2021/06/16 08:04:19;;;;;;;1.67;1.50;;;29.30;62.80;;;;;;6067649;23;20447;-73
2021/06/16 08:06:45;;;;;;;5.15;1.80;;;29.20;62.50;;;;;;6092860;23;20329;-76
2021/06/16 08:09:11;;;;;;;2.42;1.50;;;29.20;63.70;;;;;;6091708;23;20010;-75
2021/06/16 08:11:37;;;;;;;3.10;1.98;;;29.30;63.50;;;;;;6093179;23;20073;-75
2021/06/16 08:14:04;;;;;;;3.65;1.67;;;29.20;62.60;;;;;;6092943;23;20013;-75
2021/06/16 08:16:30;;;;;;;2.55;1.70;;;29.20;63.00;;;;;;6091978;23;20021;-77
2021/06/16 08:18:56;;;;;;;1.75;1.60;;;29.10;62.70;;;;;;6092918;23;20018;-75
2021/06/16 08:21:22;;;;;;;1.48;1.38;;;29.10;63.40;;;;;;6091650;23;20006;-76
2021/06/16 08:23:48;;;;;;;2.38;1.63;;;29.00;63.00;;;;;;6067481;23;20097;-76
2021/06/16 08:26:16;;;;;;;4.65;1.92;;;28.90;63.50;;;;;;6091318;23;20105;-73
2021/06/16 08:28:42;;;;;;;4.18;1.88;;;28.90;64.00;;;;;;6091306;23;20022;-74
2021/06/16 08:31:08;;;;;;;2.97;1.95;;;28.80;64.30;;;;;;6093012;23;20418;-72
2021/06/16 08:33:37;;;;;;;4.35;2.05;;;28.70;64.30;;;;;;6091150;23;20219;-73
2021/06/16 08:36:04;;;;;;;5.22;1.98;;;28.70;64.80;;;;;;6091982;23;20017;-71
2021/06/16 08:38:30;;;;;;;3.80;1.85;;;28.60;65.00;;;;;;6067488;23;20045;-72
2021/06/16 08:41:03;;;;;;;5.13;2.13;;;28.60;65.20;;;;;;6067525;23;20023;-73
2021/06/16 08:43:42;;;;;;;5.10;2.08;;;28.60;66.10;;;;;;6091822;23;20412;-74
2021/06/16 08:46:11;;;;;;;6.13;2.03;;;28.60;66.80;;;;;;6093022;23;20010;-73
2021/06/16 08:48:37;;;;;;;3.53;1.90;;;28.60;66.30;;;;;;6092954;23;20456;-73
2021/06/16 08:51:05;;;;;;;6.25;1.98;;;28.70;66.70;;;;;;6092881;23;20068;-72
2021/06/16 08:53:31;;;;;;;4.70;2.00;;;28.60;66.50;;;;;;6092624;23;20097;-72
2021/06/16 08:55:58;;;;;;;4.03;2.42;;;28.70;67.20;;;;;;6092706;23;20037;-73
2021/06/16 08:58:24;;;;;;;4.43;2.30;;;28.60;67.10;;;;;;6092985;23;20460;-73
2021/06/16 09:00:50;;;;;;;5.18;1.95;;;28.60;67.40;;;;;;6091518;23;20018;-73
2021/06/16 09:03:16;;;;;;;5.35;1.92;;;28.50;67.30;;;;;;6091474;23;20017;-73
2021/06/16 09:05:42;;;;;;;3.92;1.85;;;28.50;70.70;;;;;;6091847;23;20014;-73
2021/06/16 09:08:22;;;;;;;3.92;1.80;;;28.50;70.90;;;;;;6093063;23;20018;-73
2021/06/16 09:10:53;;;;;;;3.63;1.80;;;28.30;72.10;;;;;;6091748;23;20011;-72
2021/06/16 09:13:28;;;;;;;3.67;1.70;;;28.30;68.10;;;;;;6093360;23;20017;-74
2021/06/16 09:15:54;;;;;;;2.33;1.85;;;28.40;66.30;;;;;;6092601;23;20445;-73
2021/06/16 09:18:20;;;;;;;3.45;1.60;;;28.40;67.10;;;;;;6091493;23;20018;-73
2021/06/16 09:20:49;;;;;;;3.00;1.90;;;28.40;68.00;;;;;;6093419;23;20013;-72
2021/06/16 09:23:19;;;;;;;4.10;1.90;;;28.30;67.30;;;;;;6091509;23;20015;-73
2021/06/16 09:26:05;;;;;;;3.20;1.75;;;28.30;67.60;;;;;;6093043;23;20023;-72
2021/06/16 09:28:35;;;;;;;;;;;28.20;66.90;;;;;;6092067;23;20022;-73
2021/06/16 09:31:01;;;;;;;3.65;1.95;;;28.20;68.20;;;;;;6092880;23;19909;-73
2021/06/16 09:33:28;;;;;;;4.13;1.83;;;28.20;68.80;;;;;;6118991;23;20017;-73
2021/06/16 09:35:54;;;;;;;5.55;2.47;;;28.20;68.50;;;;;;6071278;23;20017;-73
2021/06/16 09:38:32;;;;;;;1.90;1.67;;;28.20;69.60;;;;;;6121937;23;20022;-73
2021/06/16 09:41:00;;;;;;;4.50;2.08;;;28.10;68.70;;;;;;6122209;23;20467;-74
2021/06/16 09:43:27;;;;;;;5.20;2.05;;;28.10;67.60;;;;;;6072086;23;20020;-74
2021/06/16 09:45:58;;;;;;;3.92;2.20;;;28.00;67.20;;;;;;6096092;23;20006;-73
2021/06/16 09:48:33;;;;;;;1.60;1.42;;;28.00;67.50;;;;;;6096728;23;20025;-73
2021/06/16 09:51:21;;;;;;;2.55;1.60;;;28.00;66.60;;;;;;6072295;23;20018;-73
2021/06/16 09:54:11;;;;;;;1.75;1.48;;;28.00;66.60;;;;;;6096675;23;20014;-73
2021/06/16 09:56:39;;;;;;;2.13;1.98;;;28.00;66.30;;;;;;6072404;23;20348;-73
2021/06/16 09:59:05;;;;;;;4.20;1.80;;;27.90;65.70;;;;;;6095739;23;20026;-73
2021/06/16 10:01:56;;;;;;;3.00;1.85;;;27.90;65.70;;;;;;6121558;23;20060;-73
2021/06/16 10:04:36;;;;;;;3.58;1.95;;;27.90;66.80;;;;;;6096716;23;20045;-73
2021/06/16 10:07:13;;;;;;;7.10;1.88;;;27.90;66.20;;;;;;6096288;23;20025;-73
2021/06/16 10:09:46;;;;;;;2.20;1.60;;;28.00;66.70;;;;;;6121955;23;20093;-74
2021/06/16 10:12:14;;;;;;;5.75;1.80;;;28.00;65.70;;;;;;6121786;23;20014;-73
2021/06/16 10:14:40;;;;;;;2.25;1.70;;;28.00;65.60;;;;;;6095949;23;20401;-73
2021/06/16 10:17:08;;;;;;;1.30;1.20;;;27.90;64.60;;;;;;6121688;23;20014;-72
2021/06/16 10:19:35;;;;;;;1.58;1.48;;;27.90;65.70;;;;;;6121897;23;20018;-74
2021/06/16 10:22:03;;;;;;;3.75;1.55;;;27.90;65.50;;;;;;6095659;23;20021;-73
2021/06/16 10:24:29;;;;;;;2.28;1.38;;;28.00;64.90;;;;;;6095906;23;20014;-72
2021/06/16 10:26:59;;;;;;;2.35;1.70;;;27.80;63.20;;;;;;6096242;23;20013;-73
2021/06/16 10:29:34;;;;;;;2.38;1.50;;;27.80;63.90;;;;;;6121832;23;20018;-73
2021/06/16 10:32:08;;;;;;;3.85;1.65;;;27.80;64.50;;;;;;6121425;23;20022;-74
2021/06/16 10:34:52;;;;;;;2.55;1.48;;;27.80;63.70;;;;;;6095852;23;20060;-73
2021/06/16 10:37:41;;;;;;;3.78;1.65;;;27.70;63.60;;;;;;6121627;23;20014;-73
2021/06/16 10:40:25;;;;;;;3.08;1.75;;;27.70;62.90;;;;;;6096354;23;20056;-72
2021/06/16 10:43:06;;;;;;;4.35;1.30;;;27.60;62.60;;;;;;6121639;23;20042;-73
2021/06/16 10:45:41;;;;;;;2.03;1.48;;;27.50;62.20;;;;;;6121655;23;20010;-74
2021/06/16 10:48:09;;;;;;;2.20;1.80;;;27.50;62.10;;;;;;6122552;23;20118;-74
2021/06/16 10:50:47;;;;;;;2.55;1.65;;;27.60;62.70;;;;;;6096683;23;20018;-74
2021/06/16 10:53:14;;;;;;;2.00;1.20;;;27.50;62.00;;;;;;6122819;23;20129;-73
2021/06/16 10:55:53;;;;;;;5.60;2.28;;;27.50;63.20;;;;;;6123232;23;20010;-74
2021/06/16 10:58:30;;;;;;;2.47;1.52;;;27.50;62.90;;;;;;6073593;23;20022;-73
2021/06/16 11:01:16;;;;;;;1.80;1.20;;;27.50;62.40;;;;;;6073316;23;20344;-71
2021/06/16 11:04:05;;;;;;;8.48;1.48;;;27.50;62.40;;;;;;6123126;23;20014;-75
2021/06/16 11:06:34;;;;;;;4.95;1.27;;;27.50;62.70;;;;;;6101024;23;20068;-74
2021/06/16 11:09:04;;;;;;;5.72;1.30;;;27.50;61.90;;;;;;6096632;23;20006;-72
2021/06/16 11:11:52;;;;;;;4.68;1.20;;;27.40;62.00;;;;;;6072625;23;20017;-72
2021/06/16 11:14:32;;;;;;;3.60;1.27;;;27.40;62.40;;;;;;6122381;23;20014;-70
2021/06/16 11:17:28;;;;;;;4.72;1.30;;;27.40;61.70;;;;;;6122737;23;20092;-71
2021/06/16 11:20:07;;;;;;;3.93;1.00;;;27.40;63.00;;;;;;6101459;23;20026;-72
2021/06/16 11:22:35;;;;;;;2.50;1.20;;;27.50;62.60;;;;;;6072847;23;20020;-72
2021/06/16 11:25:20;;;;;;;2.85;0.98;;;27.40;61.10;;;;;;6096542;23;20016;-71
2021/06/16 11:27:54;;;;;;;2.47;1.00;;;27.40;59.80;;;;;;6122574;23;20010;-72
2021/06/16 11:30:32;;;;;;;2.53;0.98;;;27.40;61.70;;;;;;6096733;23;20010;-75
2021/06/16 11:33:19;;;;;;;2.45;1.00;;;27.40;61.70;;;;;;6096195;23;20517;-73
2021/06/16 11:35:49;;;;;;;1.50;1.17;;;27.40;62.60;;;;;;6096564;23;20018;-74
2021/06/16 11:38:20;;;;;;;3.25;1.00;;;27.50;62.20;;;;;;6122944;23;20394;-73
2021/06/16 11:41:20;;;;;;;2.88;1.10;;;27.50;61.00;;;;;;6072347;23;20297;-70
2021/06/16 11:43:50;;;;;;;1.67;0.80;;;27.50;60.70;;;;;;6096554;23;20406;-71
2021/06/16 11:46:29;;;;;;;5.55;1.05;;;27.40;59.10;;;;;;6096360;23;20010;-71
2021/06/16 11:49:04;;;;;;;2.70;0.82;;;27.40;60.00;;;;;;6096602;23;20017;-71
2021/06/16 11:51:41;;;;;;;3.90;1.00;;;27.40;60.10;;;;;;6096361;23;20068;-73
2021/06/16 11:54:23;;;;;;;3.05;0.90;;;27.30;61.20;;;;;;6122596;23;20017;-71
2021/06/16 11:56:52;;;;;;;1.95;0.80;;;27.40;60.70;;;;;;6095945;23;20021;-73
2021/06/16 11:59:34;;;;;;;2.00;1.27;;;27.30;60.00;;;;;;6122408;23;20018;-73
2021/06/16 12:02:07;;;;;;;4.05;0.90;;;27.30;60.10;;;;;;6096473;23;20009;-72
2021/06/16 12:04:50;;;;;;;1.95;0.90;;;27.30;60.50;;;;;;6097424;23;20067;-72
2021/06/16 12:07:25;;;;;;;5.55;1.08;;;27.30;60.70;;;;;;6096757;23;20041;-71
2021/06/16 12:09:54;;;;;;;4.63;1.00;;;27.30;61.20;;;;;;6122424;23;20017;-71
2021/06/16 12:12:20;;;;;;;2.72;1.17;;;27.30;60.60;;;;;;6122345;23;20021;-71
2021/06/16 12:14:46;;;;;;;4.03;1.00;;;27.20;61.50;;;;;;6096622;23;20017;-70
2021/06/16 12:17:13;;;;;;;1.70;0.77;;;27.20;62.20;;;;;;6096479;23;20005;-73
2021/06/16 12:19:39;;;;;;;1.80;0.75;;;27.20;62.60;;;;;;6096491;23;20029;-73
2021/06/16 12:22:11;;;;;;;2.90;0.98;;;27.20;61.50;;;;;;6096377;23;20017;-72
2021/06/16 12:24:43;;;;;;;1.85;0.90;;;27.20;61.60;;;;;;6096225;23;20056;-72
2021/06/16 12:27:15;;;;;;;3.00;1.00;;;27.10;60.90;;;;;;6096339;23;20010;-71
2021/06/16 12:29:53;;;;;;;4.13;1.17;;;27.10;61.40;;;;;;6096924;23;20116;-72
2021/06/16 12:32:30;;;;;;;4.82;1.10;;;27.10;62.10;;;;;;6095999;23;20341;-71
2021/06/16 12:35:27;;;;;;;1.30;0.93;;;27.10;62.30;;;;;;6096377;23;20010;-69
2021/06/16 12:37:56;;;;;;;2.03;1.00;;;27.10;61.60;;;;;;6121943;23;20028;-69
2021/06/16 12:40:39;;;;;;;6.07;1.17;;;27.10;62.00;;;;;;6121955;23;20021;-72
2021/06/16 12:43:11;;;;;;;3.47;1.20;;;27.00;63.00;;;;;;6095891;23;20060;-74
2021/06/16 12:45:41;;;;;;;3.72;1.00;;;27.10;61.10;;;;;;6096062;23;20010;-71
2021/06/16 12:48:15;;;;;;;3.13;0.95;;;27.10;61.60;;;;;;6095788;23;20440;-71
2021/06/16 12:50:50;;;;;;;4.15;1.15;;;27.10;61.60;;;;;;6121851;23;20021;-73
2021/06/16 12:53:19;;;;;;;1.10;1.00;;;27.00;60.70;;;;;;6096185;23;20135;-72
2021/06/16 12:55:49;;;;;;;4.07;1.13;;;27.10;61.10;;;;;;6096133;23;20017;-72
2021/06/16 12:58:16;;;;;;;1.42;0.98;;;27.00;60.70;;;;;;6072089;23;20018;-73
2021/06/16 13:00:43;;;;;;;4.55;1.17;;;27.00;60.80;;;;;;6071864;23;20088;-70
2021/06/16 13:03:15;;;;;;;7.13;1.35;;;27.00;59.80;;;;;;6096475;23;20416;-74